METAR Data
IDs: Format: Raw Decoded Include TAF

Data at: 0645 UTC 27 Feb 2020

METAR for:PAOU (Nelson Lagoon Arpt, AK, US)
Text:PAOU 270556Z AUTO 10004KT 10SM OVC013 M06/M07 A2966 RMK AO2 SLP043 T10561072 11011 21056 53012 FZRANO
Temperature: -5.6°C ( 22°F)
Dewpoint: -7.2°C ( 19°F) [RH = 88%]
Pressure (altimeter):29.66 inches Hg (1004.5 mb) [Sea level pressure: 1004.3 mb]
Winds:from the E (100 degrees) at 5 MPH (4 knots; 2.1 m/s)
Visibility:10 or more sm (16+ km)
Ceiling:1300 feet AGL
Clouds: overcast cloud deck at 1300 feet AGL
QC Flag:automated observation with no human augmentation
Text:PAOU 270456Z AUTO 09005KT 10SM OVC013 M05/M07 A2965 RMK AO2 SLP040 T10501072 FZRANO
Temperature: -5.0°C ( 23°F)
Dewpoint: -7.2°C ( 19°F) [RH = 85%]
Pressure (altimeter):29.65 inches Hg (1004.1 mb) [Sea level pressure: 1004.0 mb]
Winds:from the E (90 degrees) at 6 MPH (5 knots; 2.6 m/s)
Visibility:10 or more sm (16+ km)
Ceiling:1300 feet AGL
Clouds: overcast cloud deck at 1300 feet AGL
QC Flag:automated observation with no human augmentation
Text:PAOU 270356Z AUTO 07005KT 10SM OVC013 M05/M08 A2963 RMK AO2 SLP033 T10501078 FZRANO
Temperature: -5.0°C ( 23°F)
Dewpoint: -7.8°C ( 18°F) [RH = 81%]
Pressure (altimeter):29.63 inches Hg (1003.5 mb) [Sea level pressure: 1003.3 mb]
Winds:from the ENE (70 degrees) at 6 MPH (5 knots; 2.6 m/s)
Visibility:10 or more sm (16+ km)
Ceiling:1300 feet AGL
Clouds: overcast cloud deck at 1300 feet AGL
QC Flag:automated observation with no human augmentation
Text:PAOU 270256Z AUTO 11004KT 10SM OVC013 M04/M07 A2962 RMK AO2 SLP031 T10391072 53006 FZRANO
Temperature: -3.9°C ( 25°F)
Dewpoint: -7.2°C ( 19°F) [RH = 78%]
Pressure (altimeter):29.62 inches Hg (1003.1 mb) [Sea level pressure: 1003.1 mb]
Winds:from the ESE (110 degrees) at 5 MPH (4 knots; 2.1 m/s)
Visibility:10 or more sm (16+ km)
Ceiling:1300 feet AGL
Clouds: overcast cloud deck at 1300 feet AGL
QC Flag:automated observation with no human augmentation
Text:PAOU 270212Z AUTO 11003KT 10SM BKN013 M03/M07 A2962 RMK AO2 FZRANO
Temperature: -3.0°C ( 27°F)
Dewpoint: -7.0°C ( 19°F) [RH = 74%]
Pressure (altimeter):29.62 inches Hg (1003.1 mb)
Winds:from the ESE (110 degrees) at 3 MPH (3 knots; 1.5 m/s)
Visibility:10 or more sm (16+ km)
Ceiling:1300 feet AGL
Clouds: broken clouds at 1300 feet AGL
QC Flag:automated observation with no human augmentation
Text:PAOU 270156Z AUTO 11003KT 10SM SCT013 M03/M07 A2961 RMK AO2 SLP028 T10281067 FZRANO
Temperature: -2.8°C ( 27°F)
Dewpoint: -6.7°C ( 20°F) [RH = 74%]
Pressure (altimeter):29.61 inches Hg (1002.8 mb) [Sea level pressure: 1002.8 mb]
Winds:from the ESE (110 degrees) at 3 MPH (3 knots; 1.5 m/s)
Visibility:10 or more sm (16+ km)
Ceiling:at least 12,000 feet AGL
Clouds: scattered clouds at 1300 feet AGL
QC Flag:automated observation with no human augmentation
Text:PAOU 270103Z AUTO 00000KT 10SM SCT015 M02/M07 A2961 RMK AO2 FZRANO
Temperature: -2.0°C ( 28°F)
Dewpoint: -7.0°C ( 19°F) [RH = 69%]
Pressure (altimeter):29.61 inches Hg (1002.8 mb)
Winds:calm
Visibility:10 or more sm (16+ km)
Ceiling:at least 12,000 feet AGL
Clouds: scattered clouds at 1500 feet AGL
QC Flag:automated observation with no human augmentation
Text:PAOU 270056Z AUTO 12005KT 10SM BKN015 M02/M07 A2961 RMK AO2 SLP026 T10221067 FZRANO
Temperature: -2.2°C ( 28°F)
Dewpoint: -6.7°C ( 20°F) [RH = 71%]
Pressure (altimeter):29.61 inches Hg (1002.8 mb) [Sea level pressure: 1002.6 mb]
Winds:from the ESE (120 degrees) at 6 MPH (5 knots; 2.6 m/s)
Visibility:10 or more sm (16+ km)
Ceiling:1500 feet AGL
Clouds: broken clouds at 1500 feet AGL
QC Flag:automated observation with no human augmentation
Text:PAOU 270049Z AUTO VRB04KT 10SM BKN015 M02/M07 A2961 RMK AO2 FZRANO
Temperature: -2.0°C ( 28°F)
Dewpoint: -7.0°C ( 19°F) [RH = 69%]
Pressure (altimeter):29.61 inches Hg (1002.8 mb)
Winds:variable direction winds at 5 MPH (4 knots; 2.1 m/s)
Visibility:10 or more sm (16+ km)
Ceiling:1500 feet AGL
Clouds: broken clouds at 1500 feet AGL
QC Flag:automated observation with no human augmentation

TAF for:PAOU (Nelson Lagoon Arpt, AK, US)
Text:No data found